sensor_id;sensor_type;location;lat;lon;timestamp;P1;durP1;ratioP1;P2;durP2;ratioP2
32399;SDS011;45045;45.440;9.178;2023-02-19T00:01:17;34.28;;;26.23;;
32399;SDS011;45045;45.440;9.178;2023-02-19T00:03:55;53.58;;;40.13;;
32399;SDS011;45045;45.440;9.178;2023-02-19T00:06:23;30.40;;;22.65;;
32399;SDS011;45045;45.440;9.178;2023-02-19T00:08:53;19.55;;;15.93;;
32399;SDS011;45045;45.440;9.178;2023-02-19T00:11:28;20.30;;;14.63;;
32399;SDS011;45045;45.440;9.178;2023-02-19T00:13:57;22.60;;;17.52;;
32399;SDS011;45045;45.440;9.178;2023-02-19T00:16:31;21.85;;;16.17;;
32399;SDS011;45045;45.440;9.178;2023-02-19T00:18:59;19.95;;;14.02;;
32399;SDS011;45045;45.440;9.178;2023-02-19T00:21:27;24.52;;;16.80;;
32399;SDS011;45045;45.440;9.178;2023-02-19T00:23:56;17.92;;;14.00;;
32399;SDS011;45045;45.440;9.178;2023-02-19T00:26:24;18.30;;;13.02;;
32399;SDS011;45045;45.440;9.178;2023-02-19T00:28:51;16.02;;;13.00;;
32399;SDS011;45045;45.440;9.178;2023-02-19T00:31:19;14.90;;;12.30;;
32399;SDS011;45045;45.440;9.178;2023-02-19T00:33:50;15.48;;;12.73;;
32399;SDS011;45045;45.440;9.178;2023-02-19T00:36:18;17.17;;;12.52;;
32399;SDS011;45045;45.440;9.178;2023-02-19T00:38:44;16.77;;;12.70;;
32399;SDS011;45045;45.440;9.178;2023-02-19T00:41:11;19.67;;;13.65;;
32399;SDS011;45045;45.440;9.178;2023-02-19T00:43:47;16.73;;;13.40;;
32399;SDS011;45045;45.440;9.178;2023-02-19T00:46:28;18.90;;;13.88;;
32399;SDS011;45045;45.440;9.178;2023-02-19T00:48:55;21.38;;;17.50;;
32399;SDS011;45045;45.440;9.178;2023-02-19T00:51:23;15.43;;;12.45;;
32399;SDS011;45045;45.440;9.178;2023-02-19T00:53:50;17.60;;;12.38;;
32399;SDS011;45045;45.440;9.178;2023-02-19T00:56:16;17.58;;;13.38;;
32399;SDS011;45045;45.440;9.178;2023-02-19T00:58:42;17.38;;;13.48;;
32399;SDS011;45045;45.440;9.178;2023-02-19T01:01:08;17.90;;;13.10;;
32399;SDS011;45045;45.440;9.178;2023-02-19T01:03:35;17.33;;;12.65;;
32399;SDS011;45045;45.440;9.178;2023-02-19T01:06:02;18.58;;;13.85;;
32399;SDS011;45045;45.440;9.178;2023-02-19T01:08:30;19.75;;;15.48;;
32399;SDS011;45045;45.440;9.178;2023-02-19T01:10:56;17.40;;;13.68;;
32399;SDS011;45045;45.440;9.178;2023-02-19T01:13:23;19.27;;;14.27;;
32399;SDS011;45045;45.440;9.178;2023-02-19T01:15:49;16.90;;;14.05;;
32399;SDS011;45045;45.440;9.178;2023-02-19T01:18:14;19.42;;;14.32;;
32399;SDS011;45045;45.440;9.178;2023-02-19T01:20:41;20.55;;;15.63;;
32399;SDS011;45045;45.440;9.178;2023-02-19T01:23:09;19.95;;;13.80;;
32399;SDS011;45045;45.440;9.178;2023-02-19T01:25:39;17.95;;;13.77;;
32399;SDS011;45045;45.440;9.178;2023-02-19T01:28:05;16.42;;;13.75;;
32399;SDS011;45045;45.440;9.178;2023-02-19T01:30:35;17.80;;;13.40;;
32399;SDS011;45045;45.440;9.178;2023-02-19T01:33:05;15.50;;;12.13;;
32399;SDS011;45045;45.440;9.178;2023-02-19T01:35:32;15.45;;;12.68;;
32399;SDS011;45045;45.440;9.178;2023-02-19T01:37:58;17.40;;;12.55;;
32399;SDS011;45045;45.440;9.178;2023-02-19T01:40:24;16.33;;;11.77;;
32399;SDS011;45045;45.440;9.178;2023-02-19T01:42:50;15.52;;;12.32;;
32399;SDS011;45045;45.440;9.178;2023-02-19T01:47:45;16.30;;;12.23;;
32399;SDS011;45045;45.440;9.178;2023-02-19T01:50:15;16.92;;;13.00;;
32399;SDS011;45045;45.440;9.178;2023-02-19T01:52:41;15.32;;;13.05;;
32399;SDS011;45045;45.440;9.178;2023-02-19T01:55:07;19.15;;;12.45;;
32399;SDS011;45045;45.440;9.178;2023-02-19T01:57:37;15.85;;;12.57;;
32399;SDS011;45045;45.440;9.178;2023-02-19T02:00:08;16.88;;;13.05;;
32399;SDS011;45045;45.440;9.178;2023-02-19T02:02:38;17.30;;;12.43;;
32399;SDS011;45045;45.440;9.178;2023-02-19T02:05:06;18.55;;;12.52;;
32399;SDS011;45045;45.440;9.178;2023-02-19T02:07:41;15.50;;;12.10;;
32399;SDS011;45045;45.440;9.178;2023-02-19T02:10:26;16.35;;;12.50;;
32399;SDS011;45045;45.440;9.178;2023-02-19T02:12:55;14.82;;;12.60;;
32399;SDS011;45045;45.440;9.178;2023-02-19T02:15:23;16.27;;;12.63;;
32399;SDS011;45045;45.440;9.178;2023-02-19T02:18:05;17.33;;;12.80;;
32399;SDS011;45045;45.440;9.178;2023-02-19T02:23:34;16.17;;;12.45;;
32399;SDS011;45045;45.440;9.178;2023-02-19T02:31:26;16.05;;;12.23;;
32399;SDS011;45045;45.440;9.178;2023-02-19T02:34:00;15.93;;;12.80;;
32399;SDS011;45045;45.440;9.178;2023-02-19T02:36:37;17.48;;;13.30;;
32399;SDS011;45045;45.440;9.178;2023-02-19T02:39:07;15.40;;;12.52;;
32399;SDS011;45045;45.440;9.178;2023-02-19T02:41:43;18.27;;;12.73;;
32399;SDS011;45045;45.440;9.178;2023-02-19T02:44:34;15.40;;;12.65;;
32399;SDS011;45045;45.440;9.178;2023-02-19T02:47:00;15.20;;;12.57;;
32399;SDS011;45045;45.440;9.178;2023-02-19T02:49:29;17.30;;;12.40;;
32399;SDS011;45045;45.440;9.178;2023-02-19T02:51:55;16.98;;;12.38;;
32399;SDS011;45045;45.440;9.178;2023-02-19T02:54:25;17.23;;;12.45;;
32399;SDS011;45045;45.440;9.178;2023-02-19T02:57:11;15.95;;;13.10;;
32399;SDS011;45045;45.440;9.178;2023-02-19T02:59:39;18.63;;;12.60;;
32399;SDS011;45045;45.440;9.178;2023-02-19T03:02:08;16.80;;;11.52;;
32399;SDS011;45045;45.440;9.178;2023-02-19T03:07:43;18.50;;;12.45;;
32399;SDS011;45045;45.440;9.178;2023-02-19T03:10:16;19.42;;;13.20;;
32399;SDS011;45045;45.440;9.178;2023-02-19T03:12:46;20.95;;;13.90;;
32399;SDS011;45045;45.440;9.178;2023-02-19T03:15:36;16.80;;;13.75;;
32399;SDS011;45045;45.440;9.178;2023-02-19T03:18:46;18.55;;;12.45;;
32399;SDS011;45045;45.440;9.178;2023-02-19T03:21:34;21.75;;;14.63;;
32399;SDS011;45045;45.440;9.178;2023-02-19T03:24:04;20.25;;;14.20;;
32399;SDS011;45045;45.440;9.178;2023-02-19T03:26:51;32.38;;;21.75;;
32399;SDS011;45045;45.440;9.178;2023-02-19T03:29:19;22.60;;;15.55;;
32399;SDS011;45045;45.440;9.178;2023-02-19T03:31:47;25.10;;;18.08;;
32399;SDS011;45045;45.440;9.178;2023-02-19T03:34:19;16.88;;;13.18;;
32399;SDS011;45045;45.440;9.178;2023-02-19T03:36:51;18.38;;;13.57;;
32399;SDS011;45045;45.440;9.178;2023-02-19T03:39:38;18.25;;;13.63;;
32399;SDS011;45045;45.440;9.178;2023-02-19T03:44:57;15.93;;;12.77;;
32399;SDS011;45045;45.440;9.178;2023-02-19T03:47:24;22.50;;;14.32;;
32399;SDS011;45045;45.440;9.178;2023-02-19T03:52:23;17.98;;;14.02;;
32399;SDS011;45045;45.440;9.178;2023-02-19T03:55:22;18.52;;;13.80;;
32399;SDS011;45045;45.440;9.178;2023-02-19T04:00:37;19.58;;;14.07;;
32399;SDS011;45045;45.440;9.178;2023-02-19T04:03:30;21.25;;;14.02;;
32399;SDS011;45045;45.440;9.178;2023-02-19T04:06:24;20.13;;;14.77;;
32399;SDS011;45045;45.440;9.178;2023-02-19T04:08:53;18.88;;;14.00;;
32399;SDS011;45045;45.440;9.178;2023-02-19T04:11:22;17.35;;;13.43;;
32399;SDS011;45045;45.440;9.178;2023-02-19T04:13:55;17.98;;;14.57;;
32399;SDS011;45045;45.440;9.178;2023-02-19T04:16:29;19.60;;;13.60;;
32399;SDS011;45045;45.440;9.178;2023-02-19T04:18:58;20.90;;;14.60;;
32399;SDS011;45045;45.440;9.178;2023-02-19T04:21:29;18.20;;;13.73;;
32399;SDS011;45045;45.440;9.178;2023-02-19T04:23:57;18.05;;;14.65;;
32399;SDS011;45045;45.440;9.178;2023-02-19T04:26:27;19.30;;;15.25;;
32399;SDS011;45045;45.440;9.178;2023-02-19T04:28:54;19.58;;;15.07;;
32399;SDS011;45045;45.440;9.178;2023-02-19T04:31:22;19.17;;;15.43;;
32399;SDS011;45045;45.440;9.178;2023-02-19T04:33:48;19.40;;;15.25;;
32399;SDS011;45045;45.440;9.178;2023-02-19T04:36:14;20.50;;;15.63;;
32399;SDS011;45045;45.440;9.178;2023-02-19T04:38:39;19.80;;;14.85;;
32399;SDS011;45045;45.440;9.178;2023-02-19T04:41:05;22.27;;;16.05;;
32399;SDS011;45045;45.440;9.178;2023-02-19T04:43:31;21.70;;;16.83;;
32399;SDS011;45045;45.440;9.178;2023-02-19T04:46:00;20.55;;;16.55;;
32399;SDS011;45045;45.440;9.178;2023-02-19T04:48:26;19.75;;;16.10;;
32399;SDS011;45045;45.440;9.178;2023-02-19T04:50:52;23.77;;;17.35;;
32399;SDS011;45045;45.440;9.178;2023-02-19T04:53:18;19.63;;;16.40;;
32399;SDS011;45045;45.440;9.178;2023-02-19T04:55:44;21.45;;;17.08;;
32399;SDS011;45045;45.440;9.178;2023-02-19T04:58:10;20.90;;;16.92;;
32399;SDS011;45045;45.440;9.178;2023-02-19T05:00:36;20.67;;;16.30;;
32399;SDS011;45045;45.440;9.178;2023-02-19T05:03:02;23.10;;;17.08;;
32399;SDS011;45045;45.440;9.178;2023-02-19T05:05:27;21.65;;;16.65;;
32399;SDS011;45045;45.440;9.178;2023-02-19T05:07:53;21.30;;;17.45;;
32399;SDS011;45045;45.440;9.178;2023-02-19T05:10:19;22.75;;;16.90;;
32399;SDS011;45045;45.440;9.178;2023-02-19T05:12:45;22.20;;;17.50;;
32399;SDS011;45045;45.440;9.178;2023-02-19T05:15:10;22.00;;;17.55;;
32399;SDS011;45045;45.440;9.178;2023-02-19T05:17:36;24.58;;;17.55;;
32399;SDS011;45045;45.440;9.178;2023-02-19T05:20:02;22.08;;;17.00;;
32399;SDS011;45045;45.440;9.178;2023-02-19T05:22:28;22.55;;;17.83;;
32399;SDS011;45045;45.440;9.178;2023-02-19T05:24:54;23.05;;;17.55;;
32399;SDS011;45045;45.440;9.178;2023-02-19T05:27:20;39.10;;;27.02;;
32399;SDS011;45045;45.440;9.178;2023-02-19T05:29:45;47.38;;;27.13;;
32399;SDS011;45045;45.440;9.178;2023-02-19T05:32:12;32.15;;;22.13;;
32399;SDS011;45045;45.440;9.178;2023-02-19T05:34:38;74.03;;;39.47;;
32399;SDS011;45045;45.440;9.178;2023-02-19T05:37:03;43.63;;;28.27;;
32399;SDS011;45045;45.440;9.178;2023-02-19T05:39:29;27.45;;;19.88;;
32399;SDS011;45045;45.440;9.178;2023-02-19T05:41:55;25.70;;;20.05;;
32399;SDS011;45045;45.440;9.178;2023-02-19T05:44:20;25.83;;;20.42;;
32399;SDS011;45045;45.440;9.178;2023-02-19T05:46:46;23.60;;;18.20;;
32399;SDS011;45045;45.440;9.178;2023-02-19T05:49:11;23.50;;;18.25;;
32399;SDS011;45045;45.440;9.178;2023-02-19T05:51:37;27.08;;;19.15;;
32399;SDS011;45045;45.440;9.178;2023-02-19T05:54:03;23.55;;;17.92;;
32399;SDS011;45045;45.440;9.178;2023-02-19T05:56:30;24.80;;;18.25;;
32399;SDS011;45045;45.440;9.178;2023-02-19T05:59:19;25.42;;;18.55;;
32399;SDS011;45045;45.440;9.178;2023-02-19T06:01:47;25.75;;;17.98;;
32399;SDS011;45045;45.440;9.178;2023-02-19T06:04:14;23.13;;;19.02;;
32399;SDS011;45045;45.440;9.178;2023-02-19T06:06:40;22.80;;;18.23;;
32399;SDS011;45045;45.440;9.178;2023-02-19T06:09:07;25.05;;;18.52;;
32399;SDS011;45045;45.440;9.178;2023-02-19T06:11:34;26.05;;;19.65;;
32399;SDS011;45045;45.440;9.178;2023-02-19T06:14:00;24.52;;;18.45;;
32399;SDS011;45045;45.440;9.178;2023-02-19T06:16:25;24.55;;;19.52;;
32399;SDS011;45045;45.440;9.178;2023-02-19T06:18:53;25.40;;;19.63;;
32399;SDS011;45045;45.440;9.178;2023-02-19T06:21:19;23.90;;;19.35;;
32399;SDS011;45045;45.440;9.178;2023-02-19T06:23:45;24.95;;;18.98;;
32399;SDS011;45045;45.440;9.178;2023-02-19T06:26:15;24.75;;;19.25;;
32399;SDS011;45045;45.440;9.178;2023-02-19T06:28:44;26.05;;;20.02;;
32399;SDS011;45045;45.440;9.178;2023-02-19T06:31:11;26.13;;;19.05;;
32399;SDS011;45045;45.440;9.178;2023-02-19T06:33:38;23.70;;;18.10;;
32399;SDS011;45045;45.440;9.178;2023-02-19T06:36:05;26.75;;;20.02;;
32399;SDS011;45045;45.440;9.178;2023-02-19T06:38:32;24.83;;;19.42;;
32399;SDS011;45045;45.440;9.178;2023-02-19T06:41:01;25.33;;;18.27;;
32399;SDS011;45045;45.440;9.178;2023-02-19T06:43:29;28.35;;;19.45;;
32399;SDS011;45045;45.440;9.178;2023-02-19T06:46:02;24.25;;;19.02;;
32399;SDS011;45045;45.440;9.178;2023-02-19T06:48:29;25.63;;;19.83;;
32399;SDS011;45045;45.440;9.178;2023-02-19T06:50:56;26.60;;;18.80;;
32399;SDS011;45045;45.440;9.178;2023-02-19T06:53:22;24.42;;;18.35;;
32399;SDS011;45045;45.440;9.178;2023-02-19T06:56:22;23.02;;;18.92;;
32399;SDS011;45045;45.440;9.178;2023-02-19T06:59:07;26.00;;;19.45;;
32399;SDS011;45045;45.440;9.178;2023-02-19T07:01:35;29.63;;;19.50;;
32399;SDS011;45045;45.440;9.178;2023-02-19T07:04:02;27.05;;;19.63;;
32399;SDS011;45045;45.440;9.178;2023-02-19T07:06:28;25.58;;;19.42;;
32399;SDS011;45045;45.440;9.178;2023-02-19T07:08:55;25.50;;;19.85;;
32399;SDS011;45045;45.440;9.178;2023-02-19T07:11:22;25.38;;;19.30;;
32399;SDS011;45045;45.440;9.178;2023-02-19T07:13:54;24.23;;;19.38;;
32399;SDS011;45045;45.440;9.178;2023-02-19T07:16:24;25.45;;;19.67;;
32399;SDS011;45045;45.440;9.178;2023-02-19T07:18:50;26.35;;;20.25;;
32399;SDS011;45045;45.440;9.178;2023-02-19T07:21:16;25.25;;;20.00;;
32399;SDS011;45045;45.440;9.178;2023-02-19T07:23:43;23.30;;;19.45;;
32399;SDS011;45045;45.440;9.178;2023-02-19T07:26:19;27.58;;;20.30;;
32399;SDS011;45045;45.440;9.178;2023-02-19T07:28:46;24.25;;;19.40;;
32399;SDS011;45045;45.440;9.178;2023-02-19T07:31:15;26.40;;;20.75;;
32399;SDS011;45045;45.440;9.178;2023-02-19T07:33:45;26.15;;;20.27;;
32399;SDS011;45045;45.440;9.178;2023-02-19T07:36:11;28.67;;;20.75;;
32399;SDS011;45045;45.440;9.178;2023-02-19T07:38:40;27.60;;;21.30;;
32399;SDS011;45045;45.440;9.178;2023-02-19T07:41:06;29.90;;;21.33;;
32399;SDS011;45045;45.440;9.178;2023-02-19T07:43:33;27.90;;;21.40;;
32399;SDS011;45045;45.440;9.178;2023-02-19T07:46:04;33.55;;;21.75;;
32399;SDS011;45045;45.440;9.178;2023-02-19T07:48:32;85.47;;;59.43;;
32399;SDS011;45045;45.440;9.178;2023-02-19T07:50:59;29.48;;;21.67;;
32399;SDS011;45045;45.440;9.178;2023-02-19T07:53:26;27.60;;;21.70;;
32399;SDS011;45045;45.440;9.178;2023-02-19T07:55:52;29.60;;;22.13;;
32399;SDS011;45045;45.440;9.178;2023-02-19T07:58:17;28.55;;;21.27;;
32399;SDS011;45045;45.440;9.178;2023-02-19T08:00:43;26.73;;;21.35;;
32399;SDS011;45045;45.440;9.178;2023-02-19T08:03:09;28.25;;;22.08;;
32399;SDS011;45045;45.440;9.178;2023-02-19T08:05:36;29.63;;;22.10;;
32399;SDS011;45045;45.440;9.178;2023-02-19T08:08:10;31.33;;;21.33;;
32399;SDS011;45045;45.440;9.178;2023-02-19T08:10:37;30.38;;;22.40;;
32399;SDS011;45045;45.440;9.178;2023-02-19T08:13:21;31.02;;;22.13;;
32399;SDS011;45045;45.440;9.178;2023-02-19T08:15:48;31.25;;;22.50;;
32399;SDS011;45045;45.440;9.178;2023-02-19T08:18:15;30.05;;;22.92;;
32399;SDS011;45045;45.440;9.178;2023-02-19T08:20:42;35.42;;;22.20;;
32399;SDS011;45045;45.440;9.178;2023-02-19T08:23:09;30.33;;;21.45;;
32399;SDS011;45045;45.440;9.178;2023-02-19T08:25:35;30.27;;;22.50;;
32399;SDS011;45045;45.440;9.178;2023-02-19T08:28:01;28.40;;;22.67;;
32399;SDS011;45045;45.440;9.178;2023-02-19T08:30:28;28.48;;;22.83;;
32399;SDS011;45045;45.440;9.178;2023-02-19T08:32:54;31.00;;;22.58;;
32399;SDS011;45045;45.440;9.178;2023-02-19T08:35:21;31.02;;;24.40;;
32399;SDS011;45045;45.440;9.178;2023-02-19T08:37:47;27.95;;;23.20;;
32399;SDS011;45045;45.440;9.178;2023-02-19T08:40:13;29.25;;;22.67;;
32399;SDS011;45045;45.440;9.178;2023-02-19T08:42:38;31.08;;;23.67;;
32399;SDS011;45045;45.440;9.178;2023-02-19T08:45:04;30.55;;;22.83;;
32399;SDS011;45045;45.440;9.178;2023-02-19T08:47:34;28.40;;;22.70;;
32399;SDS011;45045;45.440;9.178;2023-02-19T08:50:00;29.08;;;22.83;;
32399;SDS011;45045;45.440;9.178;2023-02-19T08:52:26;30.67;;;22.17;;
32399;SDS011;45045;45.440;9.178;2023-02-19T08:54:52;32.92;;;23.13;;
32399;SDS011;45045;45.440;9.178;2023-02-19T08:57:18;31.20;;;22.80;;
32399;SDS011;45045;45.440;9.178;2023-02-19T08:59:43;28.40;;;23.63;;
32399;SDS011;45045;45.440;9.178;2023-02-19T09:02:09;30.85;;;22.63;;
32399;SDS011;45045;45.440;9.178;2023-02-19T09:04:36;29.73;;;23.38;;
32399;SDS011;45045;45.440;9.178;2023-02-19T09:07:03;30.50;;;22.95;;
32399;SDS011;45045;45.440;9.178;2023-02-19T09:09:38;34.08;;;23.92;;
32399;SDS011;45045;45.440;9.178;2023-02-19T09:12:05;33.03;;;24.48;;
32399;SDS011;45045;45.440;9.178;2023-02-19T09:14:31;35.70;;;24.88;;
32399;SDS011;45045;45.440;9.178;2023-02-19T09:16:58;31.98;;;23.95;;
32399;SDS011;45045;45.440;9.178;2023-02-19T09:19:24;30.80;;;23.88;;
32399;SDS011;45045;45.440;9.178;2023-02-19T09:21:51;31.10;;;23.38;;
32399;SDS011;45045;45.440;9.178;2023-02-19T09:24:17;32.42;;;23.17;;
32399;SDS011;45045;45.440;9.178;2023-02-19T09:26:42;32.15;;;22.98;;
32399;SDS011;45045;45.440;9.178;2023-02-19T09:29:08;32.78;;;22.33;;
32399;SDS011;45045;45.440;9.178;2023-02-19T09:31:34;32.75;;;23.20;;
32399;SDS011;45045;45.440;9.178;2023-02-19T09:33:59;29.55;;;23.65;;
32399;SDS011;45045;45.440;9.178;2023-02-19T09:36:25;31.75;;;24.50;;
32399;SDS011;45045;45.440;9.178;2023-02-19T09:38:51;32.60;;;24.42;;
32399;SDS011;45045;45.440;9.178;2023-02-19T09:41:21;30.48;;;23.63;;
32399;SDS011;45045;45.440;9.178;2023-02-19T09:43:53;33.13;;;24.48;;
32399;SDS011;45045;45.440;9.178;2023-02-19T09:49:10;33.85;;;25.55;;
32399;SDS011;45045;45.440;9.178;2023-02-19T09:51:39;35.17;;;25.02;;
32399;SDS011;45045;45.440;9.178;2023-02-19T09:54:10;32.60;;;24.30;;
32399;SDS011;45045;45.440;9.178;2023-02-19T09:56:44;36.03;;;23.98;;
32399;SDS011;45045;45.440;9.178;2023-02-19T09:59:14;29.35;;;22.33;;
32399;SDS011;45045;45.440;9.178;2023-02-19T10:01:46;28.90;;;22.33;;
32399;SDS011;45045;45.440;9.178;2023-02-19T10:04:13;27.67;;;21.52;;
32399;SDS011;45045;45.440;9.178;2023-02-19T10:06:39;28.83;;;22.17;;
32399;SDS011;45045;45.440;9.178;2023-02-19T10:12:00;30.42;;;20.20;;
32399;SDS011;45045;45.440;9.178;2023-02-19T10:14:32;28.67;;;19.85;;
32399;SDS011;45045;45.440;9.178;2023-02-19T10:17:04;25.92;;;18.70;;
32399;SDS011;45045;45.440;9.178;2023-02-19T10:19:31;22.25;;;17.02;;
32399;SDS011;45045;45.440;9.178;2023-02-19T10:21:58;22.60;;;16.23;;
32399;SDS011;45045;45.440;9.178;2023-02-19T10:24:27;20.17;;;14.88;;
32399;SDS011;45045;45.440;9.178;2023-02-19T10:26:54;21.40;;;15.85;;
32399;SDS011;45045;45.440;9.178;2023-02-19T10:29:20;26.17;;;17.92;;
32399;SDS011;45045;45.440;9.178;2023-02-19T10:31:48;21.75;;;15.75;;
32399;SDS011;45045;45.440;9.178;2023-02-19T10:34:34;24.25;;;14.88;;
32399;SDS011;45045;45.440;9.178;2023-02-19T10:36:59;21.35;;;14.73;;
32399;SDS011;45045;45.440;9.178;2023-02-19T10:39:32;19.77;;;13.70;;
32399;SDS011;45045;45.440;9.178;2023-02-19T10:42:12;17.10;;;13.35;;
32399;SDS011;45045;45.440;9.178;2023-02-19T10:44:43;19.00;;;13.27;;
32399;SDS011;45045;45.440;9.178;2023-02-19T10:47:14;23.20;;;14.55;;
32399;SDS011;45045;45.440;9.178;2023-02-19T10:49:46;23.35;;;15.10;;
32399;SDS011;45045;45.440;9.178;2023-02-19T10:52:19;115.55;;;94.30;;
32399;SDS011;45045;45.440;9.178;2023-02-19T10:54:49;41.42;;;31.98;;
32399;SDS011;45045;45.440;9.178;2023-02-19T10:59:49;34.00;;;26.73;;
32399;SDS011;45045;45.440;9.178;2023-02-19T11:02:22;15.45;;;10.73;;
32399;SDS011;45045;45.440;9.178;2023-02-19T11:05:03;18.98;;;12.85;;
32399;SDS011;45045;45.440;9.178;2023-02-19T11:07:46;18.35;;;12.02;;
32399;SDS011;45045;45.440;9.178;2023-02-19T11:10:19;17.63;;;12.15;;
32399;SDS011;45045;45.440;9.178;2023-02-19T11:12:46;15.48;;;10.98;;
32399;SDS011;45045;45.440;9.178;2023-02-19T11:15:21;15.00;;;10.93;;
32399;SDS011;45045;45.440;9.178;2023-02-19T11:20:29;17.30;;;12.52;;
32399;SDS011;45045;45.440;9.178;2023-02-19T11:22:57;14.10;;;10.05;;
32399;SDS011;45045;45.440;9.178;2023-02-19T11:25:26;15.38;;;9.52;;
32399;SDS011;45045;45.440;9.178;2023-02-19T11:28:38;15.80;;;11.07;;
32399;SDS011;45045;45.440;9.178;2023-02-19T11:30:42;13.65;;;9.30;;
32399;SDS011;45045;45.440;9.178;2023-02-19T11:35:41;12.90;;;10.20;;
32399;SDS011;45045;45.440;9.178;2023-02-19T11:38:09;14.93;;;10.15;;
32399;SDS011;45045;45.440;9.178;2023-02-19T11:40:43;15.02;;;10.13;;
32399;SDS011;45045;45.440;9.178;2023-02-19T11:52:04;15.25;;;9.75;;
32399;SDS011;45045;45.440;9.178;2023-02-19T11:54:52;13.38;;;10.07;;
32399;SDS011;45045;45.440;9.178;2023-02-19T11:57:41;13.35;;;9.98;;
32399;SDS011;45045;45.440;9.178;2023-02-19T12:00:17;17.52;;;11.15;;
32399;SDS011;45045;45.440;9.178;2023-02-19T12:05:35;14.82;;;10.88;;
32399;SDS011;45045;45.440;9.178;2023-02-19T12:13:09;16.27;;;11.43;;
32399;SDS011;45045;45.440;9.178;2023-02-19T12:15:58;17.33;;;10.63;;
32399;SDS011;45045;45.440;9.178;2023-02-19T12:32:33;14.68;;;10.40;;
32399;SDS011;45045;45.440;9.178;2023-02-19T12:43:26;14.75;;;10.18;;
32399;SDS011;45045;45.440;9.178;2023-02-19T12:45:58;14.10;;;9.63;;
32399;SDS011;45045;45.440;9.178;2023-02-19T12:48:36;14.30;;;9.88;;
32399;SDS011;45045;45.440;9.178;2023-02-19T12:51:11;22.65;;;14.98;;
32399;SDS011;45045;45.440;9.178;2023-02-19T12:53:47;16.50;;;10.85;;
32399;SDS011;45045;45.440;9.178;2023-02-19T12:56:22;12.02;;;9.15;;
32399;SDS011;45045;45.440;9.178;2023-02-19T12:58:56;11.98;;;9.43;;
32399;SDS011;45045;45.440;9.178;2023-02-19T13:01:27;14.05;;;11.10;;
32399;SDS011;45045;45.440;9.178;2023-02-19T13:06:40;14.90;;;11.20;;
32399;SDS011;45045;45.440;9.178;2023-02-19T13:09:45;12.98;;;9.80;;
32399;SDS011;45045;45.440;9.178;2023-02-19T13:12:13;14.50;;;10.20;;
32399;SDS011;45045;45.440;9.178;2023-02-19T13:14:46;12.65;;;10.35;;
32399;SDS011;45045;45.440;9.178;2023-02-19T13:17:20;15.23;;;10.80;;
32399;SDS011;45045;45.440;9.178;2023-02-19T13:19:55;15.27;;;9.95;;
32399;SDS011;45045;45.440;9.178;2023-02-19T13:22:38;16.42;;;9.90;;
32399;SDS011;45045;45.440;9.178;2023-02-19T13:37:15;13.13;;;9.90;;
32399;SDS011;45045;45.440;9.178;2023-02-19T13:39:48;17.88;;;10.88;;
32399;SDS011;45045;45.440;9.178;2023-02-19T13:42:26;13.75;;;9.32;;
32399;SDS011;45045;45.440;9.178;2023-02-19T13:44:56;14.73;;;11.35;;
32399;SDS011;45045;45.440;9.178;2023-02-19T13:52:54;18.35;;;13.60;;
32399;SDS011;45045;45.440;9.178;2023-02-19T14:00:58;12.07;;;8.43;;
32399;SDS011;45045;45.440;9.178;2023-02-19T14:03:29;11.60;;;8.30;;
32399;SDS011;45045;45.440;9.178;2023-02-19T14:06:17;10.45;;;7.47;;
32399;SDS011;45045;45.440;9.178;2023-02-19T14:11:16;13.35;;;9.07;;
32399;SDS011;45045;45.440;9.178;2023-02-19T14:14:02;12.40;;;8.43;;
32399;SDS011;45045;45.440;9.178;2023-02-19T14:19:15;9.68;;;7.53;;
32399;SDS011;45045;45.440;9.178;2023-02-19T14:22:00;11.48;;;7.88;;
32399;SDS011;45045;45.440;9.178;2023-02-19T14:24:26;13.15;;;8.02;;
32399;SDS011;45045;45.440;9.178;2023-02-19T14:26:54;10.63;;;7.85;;
32399;SDS011;45045;45.440;9.178;2023-02-19T14:29:21;15.38;;;9.88;;
32399;SDS011;45045;45.440;9.178;2023-02-19T14:31:47;11.50;;;8.00;;
32399;SDS011;45045;45.440;9.178;2023-02-19T14:34:17;11.95;;;8.15;;
32399;SDS011;45045;45.440;9.178;2023-02-19T14:36:49;10.02;;;7.05;;
32399;SDS011;45045;45.440;9.178;2023-02-19T14:39:19;13.73;;;8.02;;
32399;SDS011;45045;45.440;9.178;2023-02-19T14:41:56;10.95;;;7.53;;
32399;SDS011;45045;45.440;9.178;2023-02-19T14:44:25;9.32;;;7.05;;
32399;SDS011;45045;45.440;9.178;2023-02-19T14:47:02;15.13;;;8.13;;
32399;SDS011;45045;45.440;9.178;2023-02-19T14:49:52;20.98;;;14.40;;
32399;SDS011;45045;45.440;9.178;2023-02-19T14:52:26;11.23;;;8.32;;
32399;SDS011;45045;45.440;9.178;2023-02-19T14:55:14;11.70;;;8.48;;
32399;SDS011;45045;45.440;9.178;2023-02-19T14:57:50;8.80;;;6.90;;
32399;SDS011;45045;45.440;9.178;2023-02-19T15:02:52;9.32;;;7.15;;
32399;SDS011;45045;45.440;9.178;2023-02-19T15:05:24;10.75;;;7.35;;
32399;SDS011;45045;45.440;9.178;2023-02-19T15:07:53;10.13;;;6.70;;
32399;SDS011;45045;45.440;9.178;2023-02-19T15:10:21;9.85;;;6.95;;
32399;SDS011;45045;45.440;9.178;2023-02-19T15:15:43;14.82;;;8.27;;
32399;SDS011;45045;45.440;9.178;2023-02-19T15:18:17;11.25;;;7.60;;
32399;SDS011;45045;45.440;9.178;2023-02-19T15:20:45;12.18;;;7.30;;
32399;SDS011;45045;45.440;9.178;2023-02-19T15:23:13;11.68;;;6.85;;
32399;SDS011;45045;45.440;9.178;2023-02-19T15:25:48;9.25;;;6.85;;
32399;SDS011;45045;45.440;9.178;2023-02-19T15:30:50;9.73;;;7.05;;
32399;SDS011;45045;45.440;9.178;2023-02-19T15:33:30;19.77;;;13.68;;
32399;SDS011;45045;45.440;9.178;2023-02-19T15:36:00;9.63;;;7.20;;
32399;SDS011;45045;45.440;9.178;2023-02-19T15:38:29;13.10;;;8.10;;
32399;SDS011;45045;45.440;9.178;2023-02-19T15:40:54;13.40;;;8.38;;
32399;SDS011;45045;45.440;9.178;2023-02-19T15:43:27;9.55;;;7.57;;
32399;SDS011;45045;45.440;9.178;2023-02-19T15:45:57;9.18;;;7.00;;
32399;SDS011;45045;45.440;9.178;2023-02-19T15:48:35;15.05;;;8.93;;
32399;SDS011;45045;45.440;9.178;2023-02-19T15:51:14;13.75;;;8.13;;
32399;SDS011;45045;45.440;9.178;2023-02-19T15:53:54;12.68;;;9.95;;
32399;SDS011;45045;45.440;9.178;2023-02-19T15:56:28;11.35;;;8.30;;
32399;SDS011;45045;45.440;9.178;2023-02-19T15:58:58;11.95;;;8.85;;
32399;SDS011;45045;45.440;9.178;2023-02-19T16:01:31;8.48;;;7.03;;
32399;SDS011;45045;45.440;9.178;2023-02-19T16:04:00;15.77;;;8.70;;
32399;SDS011;45045;45.440;9.178;2023-02-19T16:06:26;11.43;;;8.23;;
32399;SDS011;45045;45.440;9.178;2023-02-19T16:11:39;8.68;;;7.05;;
32399;SDS011;45045;45.440;9.178;2023-02-19T16:16:48;11.48;;;7.75;;
32399;SDS011;45045;45.440;9.178;2023-02-19T16:19:23;15.27;;;10.57;;
32399;SDS011;45045;45.440;9.178;2023-02-19T16:21:53;12.25;;;7.78;;
32399;SDS011;45045;45.440;9.178;2023-02-19T16:24:30;11.27;;;7.80;;
32399;SDS011;45045;45.440;9.178;2023-02-19T16:27:04;12.75;;;9.65;;
32399;SDS011;45045;45.440;9.178;2023-02-19T16:29:33;14.48;;;10.15;;
32399;SDS011;45045;45.440;9.178;2023-02-19T16:31:59;12.57;;;8.98;;
32399;SDS011;45045;45.440;9.178;2023-02-19T16:40:04;12.77;;;8.15;;
32399;SDS011;45045;45.440;9.178;2023-02-19T16:45:13;12.50;;;7.40;;
32399;SDS011;45045;45.440;9.178;2023-02-19T16:47:38;10.95;;;8.07;;
32399;SDS011;45045;45.440;9.178;2023-02-19T16:50:09;10.07;;;7.80;;